createdAt,value
2018-07-11T00:00:21.725Z,4.10
2018-07-11T00:02:50.329Z,4.00
2018-07-11T00:05:18.752Z,4.77
2018-07-11T00:07:47.247Z,4.13
2018-07-11T00:10:15.677Z,4.50
2018-07-11T00:12:44.105Z,4.10
2018-07-11T00:15:12.549Z,3.90
2018-07-11T00:17:40.995Z,4.30
2018-07-11T00:20:09.509Z,4.53
2018-07-11T00:22:38.054Z,4.43
2018-07-11T00:25:06.549Z,4.47
2018-07-11T00:27:35.061Z,4.70
2018-07-11T00:30:03.557Z,4.50
2018-07-11T00:32:32.096Z,4.73
2018-07-11T00:35:00.599Z,4.67
2018-07-11T00:37:29.231Z,4.60
2018-07-11T00:39:57.684Z,4.93
2018-07-11T00:42:26.662Z,4.97
2018-07-11T00:44:55.302Z,4.93
2018-07-11T00:47:23.861Z,5.53
2018-07-11T00:49:52.424Z,4.73
2018-07-11T00:52:20.941Z,5.20
2018-07-11T00:54:49.435Z,4.60
2018-07-11T00:57:18.132Z,4.97
2018-07-11T00:59:46.601Z,5.10
2018-07-11T01:02:15.417Z,4.90
2018-07-11T01:04:43.858Z,5.80
2018-07-11T01:07:12.353Z,5.23
2018-07-11T01:09:44.871Z,5.53
2018-07-11T01:12:13.354Z,6.23
2018-07-11T01:14:41.805Z,6.00
2018-07-11T01:17:14.393Z,5.83
2018-07-11T01:19:43.589Z,5.60
2018-07-11T01:22:12.054Z,5.03
2018-07-11T01:24:40.458Z,5.57
2018-07-11T01:27:08.901Z,5.50
2018-07-11T01:29:37.355Z,6.23
2018-07-11T01:32:05.777Z,6.00
2018-07-11T01:34:34.189Z,5.63
2018-07-11T01:37:02.714Z,5.73
2018-07-11T01:39:31.098Z,6.33
2018-07-11T01:41:59.527Z,6.13
2018-07-11T01:44:27.951Z,6.47
2018-07-11T01:46:56.386Z,6.03
2018-07-11T01:49:24.762Z,6.13
2018-07-11T01:52:04.516Z,6.20
2018-07-11T01:54:32.967Z,5.73
2018-07-11T01:57:01.415Z,5.63
2018-07-11T01:59:33.683Z,5.50
2018-07-11T02:02:02.700Z,5.50
2018-07-11T02:04:32.003Z,5.80
2018-07-11T02:07:00.780Z,6.17
2018-07-11T02:09:29.619Z,5.83
2018-07-11T02:11:58.178Z,5.90
2018-07-11T02:14:26.697Z,6.10
2018-07-11T02:16:55.404Z,6.00
2018-07-11T02:19:24.019Z,5.97
2018-07-11T02:21:53.057Z,6.03
2018-07-11T02:24:23.235Z,6.40
2018-07-11T02:26:51.965Z,6.57
2018-07-11T02:29:20.520Z,6.33
2018-07-11T02:31:48.995Z,6.30
2018-07-11T02:34:21.046Z,6.30
2018-07-11T02:36:49.465Z,7.50
2018-07-11T02:39:17.979Z,6.83
2018-07-11T02:41:46.372Z,6.57
2018-07-11T02:44:14.869Z,6.33
2018-07-11T02:46:48.606Z,7.00
2018-07-11T02:49:17.142Z,6.57
2018-07-11T02:51:45.593Z,6.13
2018-07-11T02:54:14.046Z,6.60
2018-07-11T02:56:42.448Z,6.37
2018-07-11T02:59:10.857Z,6.80
2018-07-11T03:01:39.284Z,6.27
2018-07-11T03:04:07.705Z,6.80
2018-07-11T03:06:36.176Z,7.33
2018-07-11T03:09:04.570Z,6.77
2018-07-11T03:11:32.989Z,7.33
2018-07-11T03:14:01.526Z,7.97
2018-07-11T03:16:29.957Z,7.00
2018-07-11T03:18:58.575Z,7.47
2018-07-11T03:21:26.989Z,7.40
2018-07-11T03:23:55.421Z,8.65
2018-07-11T03:26:23.865Z,7.63
2018-07-11T03:28:52.281Z,8.20
2018-07-11T03:31:20.722Z,8.47
2018-07-11T03:33:49.246Z,8.40
2018-07-11T03:36:17.654Z,8.90
2018-07-11T03:38:46.099Z,8.60
2018-07-11T03:41:14.554Z,8.90
2018-07-11T03:43:42.977Z,8.83
2018-07-11T03:46:11.396Z,9.07
2018-07-11T03:48:39.875Z,8.60
2018-07-11T03:51:08.306Z,9.13
2018-07-11T03:53:36.837Z,8.23
2018-07-11T03:56:05.296Z,8.50
2018-07-11T03:58:33.836Z,9.90
2018-07-11T04:01:02.298Z,8.47
2018-07-11T04:03:30.755Z,8.97
2018-07-11T04:05:59.187Z,9.13
2018-07-11T04:08:27.662Z,8.67
2018-07-11T04:10:56.084Z,8.63
2018-07-11T04:13:24.597Z,8.40
2018-07-11T04:15:53.037Z,9.33
2018-07-11T04:18:25.624Z,8.77
2018-07-11T04:20:54.197Z,8.47
2018-07-11T04:23:22.715Z,9.07
2018-07-11T04:25:51.285Z,8.97
2018-07-11T04:28:19.817Z,10.13
2018-07-11T04:30:48.350Z,9.53
2018-07-11T04:33:16.918Z,7.97
2018-07-11T04:35:45.437Z,8.87
2018-07-11T04:38:13.926Z,8.50
2018-07-11T04:40:42.461Z,8.20
2018-07-11T04:43:11.029Z,8.00
2018-07-11T04:45:39.830Z,8.43
2018-07-11T04:48:08.884Z,8.80
2018-07-11T04:50:37.692Z,8.43
2018-07-11T04:53:09.900Z,8.60
2018-07-11T04:55:38.922Z,8.70
2018-07-11T04:58:07.345Z,9.00
2018-07-11T05:00:35.810Z,8.33
2018-07-11T05:03:04.268Z,8.53
2018-07-11T05:05:32.733Z,8.03
2018-07-11T05:08:01.244Z,8.33
2018-07-11T05:10:29.872Z,9.37
2018-07-11T05:12:58.293Z,8.63
2018-07-11T05:15:26.788Z,9.23
2018-07-11T05:17:56.161Z,9.43
2018-07-11T05:20:24.617Z,8.63
2018-07-11T05:22:53.042Z,8.60
2018-07-11T05:25:21.513Z,8.23
2018-07-11T05:27:49.938Z,9.27
2018-07-11T05:30:18.379Z,9.53
2018-07-11T05:32:46.809Z,9.20
2018-07-11T05:35:15.393Z,9.07
2018-07-11T05:37:43.930Z,9.77
2018-07-11T05:40:12.432Z,9.30
2018-07-11T05:42:40.882Z,9.37
2018-07-11T05:45:09.374Z,9.67
2018-07-11T05:47:37.816Z,9.33
2018-07-11T05:50:06.446Z,9.17
2018-07-11T05:52:34.940Z,9.57
2018-07-11T05:55:03.525Z,9.10
2018-07-11T05:57:31.985Z,9.17
2018-07-11T06:00:00.511Z,9.37
2018-07-11T06:02:28.981Z,9.07
2018-07-11T06:04:57.470Z,9.50
2018-07-11T06:07:25.944Z,9.37
2018-07-11T06:09:54.465Z,9.93
2018-07-11T06:12:22.892Z,9.47
2018-07-11T06:14:51.366Z,8.90
2018-07-11T06:17:20.125Z,9.90
2018-07-11T06:19:48.641Z,10.17
2018-07-11T06:22:17.103Z,9.93
2018-07-11T06:24:45.581Z,10.33
2018-07-11T06:27:14.036Z,9.87
2018-07-11T06:29:42.520Z,11.13
2018-07-11T06:32:10.961Z,11.03
2018-07-11T06:34:39.404Z,10.80
2018-07-11T06:37:07.833Z,12.10
2018-07-11T06:39:36.306Z,13.17
2018-07-11T06:42:04.772Z,13.47
2018-07-11T06:44:33.236Z,13.83
2018-07-11T06:47:16.172Z,14.33
2018-07-11T06:49:46.498Z,13.87
2018-07-11T06:52:15.490Z,15.43
2018-07-11T06:54:43.925Z,15.23
2018-07-11T06:57:12.398Z,16.67
2018-07-11T06:59:40.844Z,16.83
2018-07-11T07:02:09.266Z,17.10
2018-07-11T07:04:37.681Z,16.33
2018-07-11T07:07:06.073Z,15.50
2018-07-11T07:09:34.494Z,16.27
2018-07-11T07:12:02.951Z,14.80
2018-07-11T07:14:31.362Z,14.27
2018-07-11T07:16:59.762Z,13.20
2018-07-11T07:19:28.188Z,13.57
2018-07-11T07:21:56.738Z,14.43
2018-07-11T07:24:25.222Z,15.00
2018-07-11T07:26:53.643Z,14.93
2018-07-11T07:29:22.494Z,14.37
2018-07-11T07:31:50.929Z,14.43
2018-07-11T07:34:19.381Z,12.80
2018-07-11T07:36:47.810Z,13.50
2018-07-11T07:39:16.255Z,13.10
2018-07-11T07:41:44.656Z,14.20
2018-07-11T07:44:13.441Z,15.90
2018-07-11T07:46:46.081Z,15.13
2018-07-11T07:49:14.670Z,15.67
2018-07-11T07:51:43.162Z,15.83
2018-07-11T07:54:11.664Z,16.23
2018-07-11T07:56:40.187Z,15.60
2018-07-11T07:59:08.663Z,16.50
2018-07-11T08:01:37.181Z,16.87
2018-07-11T08:04:05.693Z,14.30
2018-07-11T08:06:34.146Z,15.60
2018-07-11T08:09:02.658Z,14.20
2018-07-11T08:11:31.106Z,14.40
2018-07-11T08:13:59.520Z,14.33
2018-07-11T08:16:28.052Z,15.23
2018-07-11T08:18:56.477Z,14.67
2018-07-11T08:21:24.979Z,16.50
2018-07-11T08:24:04.594Z,16.10
2018-07-11T08:26:44.373Z,17.63
2018-07-11T08:31:56.534Z,18.80
2018-07-11T08:35:04.092Z,18.30
2018-07-11T08:37:48.930Z,16.93
2018-07-11T08:41:04.634Z,16.90
2018-07-11T08:43:42.802Z,16.33
2018-07-11T08:46:22.467Z,15.50
2018-07-11T08:53:12.118Z,16.67
2018-07-11T08:55:51.717Z,16.80
2018-07-11T08:58:45.270Z,15.07
2018-07-11T09:01:55.987Z,15.50
2018-07-11T09:06:44.755Z,15.67
2018-07-11T09:11:29.590Z,14.50
2018-07-11T09:15:05.753Z,12.60
2018-07-11T09:17:50.988Z,13.70
2018-07-11T09:20:37.843Z,14.03
2018-07-11T09:23:17.698Z,14.03
2018-07-11T09:25:46.229Z,14.97
2018-07-11T09:28:14.706Z,13.87
2018-07-11T09:30:43.189Z,13.50
2018-07-11T09:33:11.714Z,12.17
2018-07-11T09:35:40.173Z,12.53
2018-07-11T09:38:08.948Z,9.93
2018-07-11T09:40:39.728Z,8.63
2018-07-11T09:43:08.249Z,8.70
2018-07-11T09:45:36.786Z,9.07
2018-07-11T09:48:05.397Z,9.97
2018-07-11T09:50:33.938Z,9.20
2018-07-11T09:53:02.378Z,8.87
2018-07-11T09:55:30.848Z,9.30
2018-07-11T09:57:59.339Z,8.20
2018-07-11T10:00:33.151Z,6.80
2018-07-11T10:03:01.651Z,8.10
2018-07-11T10:05:31.165Z,7.60
2018-07-11T10:07:59.606Z,8.13
2018-07-11T10:10:28.047Z,7.83
2018-07-11T10:12:56.488Z,7.10
2018-07-11T10:15:24.926Z,7.93
2018-07-11T10:17:53.447Z,7.70
2018-07-11T10:20:21.864Z,7.63
2018-07-11T10:22:50.373Z,6.43
2018-07-11T10:25:18.838Z,6.30
2018-07-11T10:27:47.870Z,6.67
2018-07-11T10:30:16.293Z,6.40
2018-07-11T10:32:44.815Z,6.50
2018-07-11T10:35:13.505Z,5.63
2018-07-11T10:37:41.977Z,6.13
2018-07-11T10:40:10.383Z,5.77
2018-07-11T10:42:38.897Z,5.73
2018-07-11T10:45:07.323Z,5.63
2018-07-11T10:47:35.782Z,6.00
2018-07-11T10:50:04.245Z,4.97
2018-07-11T10:52:32.701Z,5.53
2018-07-11T10:55:01.136Z,6.00
2018-07-11T10:57:29.624Z,5.77
2018-07-11T10:59:58.065Z,5.50
2018-07-11T11:02:26.481Z,4.60
2018-07-11T11:04:55.007Z,4.77
2018-07-11T11:07:23.378Z,5.17
2018-07-11T11:09:51.821Z,4.63
2018-07-11T11:12:20.293Z,5.83
2018-07-11T11:14:48.768Z,4.50
2018-07-11T11:17:17.253Z,4.40
2018-07-11T11:19:45.716Z,3.87
2018-07-11T11:22:14.300Z,4.07
2018-07-11T11:24:42.738Z,3.20
2018-07-11T11:27:11.212Z,4.40
2018-07-11T11:29:39.728Z,4.00
2018-07-11T11:32:08.197Z,3.80
2018-07-11T11:34:36.637Z,4.13
2018-07-11T11:37:05.222Z,4.47
2018-07-11T11:39:33.678Z,3.77
2018-07-11T11:42:03.227Z,3.50
2018-07-11T11:44:31.625Z,4.50
2018-07-11T11:47:02.342Z,3.50
2018-07-11T11:49:31.560Z,3.60
2018-07-11T11:52:00.241Z,3.90
2018-07-11T11:54:29.050Z,3.50
2018-07-11T11:56:57.543Z,3.50
2018-07-11T11:59:26.086Z,3.17
2018-07-11T12:01:54.566Z,3.40
2018-07-11T12:04:23.016Z,3.60
2018-07-11T12:06:51.597Z,3.50
2018-07-11T12:09:20.108Z,3.40
2018-07-11T12:11:48.558Z,3.30
2018-07-11T12:14:17.625Z,3.10
2018-07-11T12:16:46.146Z,3.60
2018-07-11T12:19:14.898Z,2.93
2018-07-11T12:21:43.369Z,2.87
2018-07-11T12:24:11.854Z,3.03
2018-07-11T12:26:40.398Z,2.77
2018-07-11T12:29:08.806Z,2.63
2018-07-11T12:31:37.798Z,2.47
2018-07-11T12:34:06.311Z,2.93
2018-07-11T12:36:34.752Z,2.90
2018-07-11T12:39:03.295Z,2.67
2018-07-11T12:41:31.858Z,2.80
2018-07-11T12:44:00.505Z,2.67
2018-07-11T12:46:28.970Z,2.60
2018-07-11T12:49:02.187Z,2.13
2018-07-11T12:51:31.014Z,2.13
2018-07-11T12:53:59.502Z,2.50
2018-07-11T12:56:28.271Z,2.60
2018-07-11T12:58:57.493Z,2.10
2018-07-11T13:01:25.966Z,2.20
2018-07-11T13:03:56.364Z,1.90
2018-07-11T13:06:26.354Z,1.77
2018-07-11T13:08:54.802Z,1.83
2018-07-11T13:11:28.844Z,2.13
2018-07-11T13:13:57.274Z,2.03
2018-07-11T13:16:25.736Z,2.20
2018-07-11T13:18:54.181Z,1.80
2018-07-11T13:21:22.615Z,2.50
2018-07-11T13:23:51.109Z,2.10
2018-07-11T13:26:19.551Z,2.30
2018-07-11T13:28:48.065Z,2.50
2018-07-11T13:31:16.477Z,2.40
2018-07-11T13:33:44.969Z,1.60
2018-07-11T13:36:13.423Z,2.17
2018-07-11T13:38:41.844Z,1.97
2018-07-11T13:41:10.447Z,3.00
2018-07-11T13:43:38.909Z,2.50
2018-07-11T13:46:07.462Z,2.30
2018-07-11T13:48:35.942Z,2.83
2018-07-11T13:51:04.386Z,3.00
2018-07-11T13:53:32.836Z,2.80
2018-07-11T13:56:01.438Z,2.60
2018-07-11T13:58:30.065Z,2.57
2018-07-11T14:00:59.050Z,2.70
2018-07-11T14:03:27.511Z,2.80
2018-07-11T14:05:56.087Z,2.90
2018-07-11T14:08:24.589Z,2.80
2018-07-11T14:10:53.226Z,2.40
2018-07-11T14:13:21.732Z,2.50
2018-07-11T14:15:50.198Z,3.10
2018-07-11T14:18:18.653Z,2.83
2018-07-11T14:20:48.085Z,2.60
2018-07-11T14:23:26.524Z,2.60
2018-07-11T14:25:55.070Z,2.93
2018-07-11T14:28:23.549Z,2.50
2018-07-11T14:30:52.092Z,2.83
2018-07-11T14:33:20.776Z,2.57
2018-07-11T14:35:49.222Z,2.70
2018-07-11T14:38:17.737Z,2.80
2018-07-11T14:40:46.400Z,2.17
2018-07-11T14:43:14.849Z,2.07
2018-07-11T14:45:43.433Z,2.70
2018-07-11T14:48:16.401Z,3.20
2018-07-11T14:50:45.401Z,3.03
2018-07-11T14:53:14.040Z,3.43
2018-07-11T14:55:42.569Z,2.50
2018-07-11T14:58:11.144Z,2.30
2018-07-11T15:00:39.610Z,2.00
2018-07-11T15:03:08.053Z,2.37
2018-07-11T15:05:36.700Z,2.43
2018-07-11T15:08:05.510Z,2.60
2018-07-11T15:10:34.188Z,2.30
2018-07-11T15:13:02.741Z,2.40
2018-07-11T15:15:31.640Z,2.47
2018-07-11T15:18:00.549Z,2.70
2018-07-11T15:20:29.081Z,2.30
2018-07-11T15:22:57.619Z,2.23
2018-07-11T15:25:26.312Z,2.33
2018-07-11T15:27:54.840Z,2.30
2018-07-11T15:30:23.325Z,2.23
2018-07-11T15:32:51.794Z,2.60
2018-07-11T15:35:20.313Z,2.90
2018-07-11T15:37:48.794Z,3.07
2018-07-11T15:40:17.339Z,2.30
2018-07-11T15:42:46.121Z,2.77
2018-07-11T15:45:14.627Z,2.50
2018-07-11T15:47:44.512Z,3.47
2018-07-11T15:50:13.002Z,4.43
2018-07-11T15:52:41.896Z,5.30
2018-07-11T15:55:10.445Z,6.27
2018-07-11T15:57:49.860Z,6.97
2018-07-11T16:00:20.143Z,7.20
2018-07-11T16:02:49.679Z,7.37
2018-07-11T16:05:20.563Z,7.83
2018-07-11T16:07:51.062Z,7.90
2018-07-11T16:10:38.501Z,7.23
2018-07-11T16:13:07.361Z,7.00
2018-07-11T16:15:35.870Z,7.40
2018-07-11T16:18:05.977Z,7.10
2018-07-11T16:20:34.676Z,6.77
2018-07-11T16:23:03.631Z,7.93
2018-07-11T16:25:32.274Z,8.00
2018-07-11T16:28:00.936Z,7.50
2018-07-11T16:30:29.478Z,7.83
2018-07-11T16:32:57.990Z,7.80
2018-07-11T16:35:26.602Z,7.73
2018-07-11T16:37:55.152Z,7.80
2018-07-11T16:40:23.666Z,8.07
2018-07-11T16:42:52.814Z,7.40
2018-07-11T16:45:21.341Z,7.73
2018-07-11T16:47:49.925Z,7.83
2018-07-11T16:50:19.061Z,7.80
2018-07-11T16:52:47.621Z,6.90
2018-07-11T16:55:16.247Z,6.93
2018-07-11T16:57:47.254Z,6.57
2018-07-11T17:00:15.813Z,7.17
2018-07-11T17:02:45.990Z,6.27
2018-07-11T17:05:20.274Z,7.47
2018-07-11T17:07:51.961Z,7.20
2018-07-11T17:10:22.408Z,7.33
2018-07-11T17:12:55.312Z,6.63
2018-07-11T17:15:25.128Z,6.93
2018-07-11T17:17:55.694Z,6.70
2018-07-11T17:20:24.922Z,7.10
2018-07-11T17:22:57.157Z,6.83
2018-07-11T17:25:30.101Z,6.37
2018-07-11T17:28:00.838Z,5.97
2018-07-11T17:30:31.725Z,6.20
2018-07-11T17:33:00.472Z,5.73
2018-07-11T17:35:29.506Z,5.53
2018-07-11T17:37:59.099Z,5.73
2018-07-11T17:40:27.618Z,4.67
2018-07-11T17:42:56.125Z,5.13
2018-07-11T17:45:24.647Z,5.80
2018-07-11T17:50:08.435Z,5.50
2018-07-11T17:53:09.690Z,6.77
2018-07-11T17:55:52.300Z,7.10
2018-07-11T17:58:24.000Z,8.50
2018-07-11T18:01:05.063Z,9.67
2018-07-11T18:03:40.997Z,9.80
2018-07-11T18:06:18.617Z,9.43
2018-07-11T18:08:52.784Z,9.67
2018-07-11T18:11:21.947Z,9.70
2018-07-11T18:13:53.128Z,8.93
2018-07-11T18:16:46.477Z,9.27
2018-07-11T18:21:40.152Z,7.97
2018-07-11T18:24:33.180Z,8.57
2018-07-11T18:29:21.678Z,7.70
2018-07-11T18:31:59.080Z,8.47
2018-07-11T18:36:43.077Z,10.97
2018-07-11T18:39:21.673Z,11.50
2018-07-11T18:43:00.054Z,11.77
2018-07-11T18:45:44.011Z,13.27
2018-07-11T18:49:23.333Z,12.90
2018-07-11T18:52:03.043Z,13.47
2018-07-11T18:55:09.083Z,14.67
2018-07-11T19:00:01.949Z,13.97
2018-07-11T19:03:18.995Z,13.23
2018-07-11T19:05:55.597Z,15.63
2018-07-11T19:08:33.487Z,14.47
2018-07-11T19:11:08.521Z,14.13
2018-07-11T19:13:42.639Z,15.17
2018-07-11T19:16:19.357Z,14.47
2018-07-11T19:18:57.311Z,15.47
2018-07-11T19:21:35.716Z,15.97
2018-07-11T19:24:10.150Z,15.13
2018-07-11T19:26:54.315Z,15.47
2018-07-11T19:29:36.738Z,14.27
2018-07-11T19:33:11.534Z,13.87
2018-07-11T19:35:51.673Z,14.20
2018-07-11T19:38:38.869Z,13.90
2018-07-11T19:41:21.933Z,15.17
2018-07-11T19:44:14.602Z,14.87
2018-07-11T19:47:21.137Z,14.77
2018-07-11T19:49:59.352Z,14.97
2018-07-11T19:52:39.469Z,15.27
2018-07-11T19:56:20.340Z,14.90
2018-07-11T19:58:49.070Z,15.43
2018-07-11T20:01:19.919Z,15.23
2018-07-11T20:03:48.426Z,16.07
2018-07-11T20:06:16.953Z,14.90
2018-07-11T20:08:45.443Z,14.87
2018-07-11T20:11:13.985Z,14.53
2018-07-11T20:13:42.542Z,16.00
2018-07-11T20:16:11.075Z,16.13
2018-07-11T20:18:39.562Z,15.93
2018-07-11T20:21:08.021Z,16.73
2018-07-11T20:23:36.545Z,17.10
2018-07-11T20:26:05.122Z,17.17
2018-07-11T20:28:33.640Z,18.20
2018-07-11T20:31:02.074Z,18.73
2018-07-11T20:33:30.599Z,18.13
2018-07-11T20:35:59.933Z,19.27
2018-07-11T20:38:28.425Z,18.47
2018-07-11T20:40:57.045Z,18.00
2018-07-11T20:43:25.623Z,18.70
2018-07-11T20:45:54.125Z,18.27
2018-07-11T20:48:22.862Z,18.23
2018-07-11T20:50:51.348Z,18.83
2018-07-11T20:53:19.851Z,18.60
2018-07-11T20:55:48.290Z,19.20
2018-07-11T20:58:28.036Z,20.80
2018-07-11T21:01:07.775Z,19.90
2018-07-11T21:07:58.389Z,18.60
2018-07-11T21:10:38.727Z,18.13
2018-07-11T21:13:57.328Z,18.23
2018-07-11T21:16:34.511Z,17.53
2018-07-11T21:19:10.858Z,18.73
2018-07-11T21:21:40.272Z,18.67
2018-07-11T21:24:09.626Z,19.00
2018-07-11T21:26:38.600Z,18.03
2018-07-11T21:29:07.297Z,18.37
2018-07-11T21:31:35.777Z,17.50
2018-07-11T21:34:04.213Z,18.43
2018-07-11T21:36:32.634Z,18.40
2018-07-11T21:39:01.087Z,18.70
2018-07-11T21:41:29.508Z,17.57
2018-07-11T21:43:58.611Z,12.33
2018-07-11T21:46:27.161Z,13.63
2018-07-11T21:48:55.602Z,12.07
2018-07-11T21:51:24.300Z,12.13
2018-07-11T21:53:53.773Z,12.43
2018-07-11T21:56:22.253Z,12.97
2018-07-11T21:58:50.837Z,12.97
2018-07-11T22:01:19.318Z,13.33
2018-07-11T22:03:47.783Z,13.67
2018-07-11T22:06:16.258Z,13.43
2018-07-11T22:08:44.737Z,13.93
2018-07-11T22:11:13.229Z,13.77
2018-07-11T22:13:41.702Z,12.97
2018-07-11T22:16:10.521Z,13.07
2018-07-11T22:18:42.766Z,13.30
2018-07-11T22:21:10.863Z,12.67
2018-07-11T22:23:38.141Z,12.60
2018-07-11T22:26:05.393Z,13.50
2018-07-11T22:28:32.686Z,13.43
2018-07-11T22:30:59.921Z,12.30
2018-07-11T22:33:27.154Z,12.80
2018-07-11T22:35:54.454Z,12.83
2018-07-11T22:38:21.658Z,13.30
2018-07-11T22:40:48.913Z,15.30
2018-07-11T22:43:16.147Z,15.60
2018-07-11T22:45:43.407Z,15.77
2018-07-11T22:48:10.655Z,16.60
2018-07-11T22:50:37.918Z,16.27
2018-07-11T22:53:05.161Z,16.67
2018-07-11T22:55:32.433Z,16.80
2018-07-11T22:57:59.676Z,17.20
2018-07-11T23:00:26.930Z,15.97
2018-07-11T23:02:54.177Z,15.33
2018-07-11T23:05:21.444Z,15.17
2018-07-11T23:07:48.680Z,15.23
2018-07-11T23:10:15.948Z,14.17
2018-07-11T23:12:43.185Z,14.93
2018-07-11T23:15:10.445Z,15.67
2018-07-11T23:17:37.712Z,15.33
2018-07-11T23:20:04.979Z,15.47
2018-07-11T23:22:32.229Z,15.57
2018-07-11T23:24:59.477Z,15.67
2018-07-11T23:27:26.735Z,15.77
2018-07-11T23:29:54.049Z,14.30
2018-07-11T23:32:21.299Z,14.90
2018-07-11T23:34:48.570Z,15.00
2018-07-11T23:37:15.806Z,15.60
2018-07-11T23:39:43.085Z,14.10
2018-07-11T23:42:10.346Z,15.13
2018-07-11T23:44:37.662Z,16.03
2018-07-11T23:47:04.926Z,15.27
2018-07-11T23:49:32.186Z,14.73
2018-07-11T23:51:59.458Z,15.00
2018-07-11T23:54:26.710Z,16.53
2018-07-11T23:56:54.342Z,16.37
2018-07-11T23:59:21.589Z,15.60
